createdAt,value
2019-02-19T00:00:56.482Z,20.90
2019-02-19T00:03:38.597Z,23.40
2019-02-19T00:06:15.897Z,21.97
2019-02-19T00:08:51.636Z,21.67
2019-02-19T00:11:39.618Z,21.30
2019-02-19T00:14:15.376Z,21.27
2019-02-19T00:16:50.321Z,20.43
2019-02-19T00:19:25.268Z,20.67
2019-02-19T00:22:01.070Z,19.50
2019-02-19T00:24:35.837Z,23.10
2019-02-19T00:27:10.751Z,22.73
2019-02-19T00:29:45.876Z,18.53
2019-02-19T00:32:21.688Z,20.27
2019-02-19T00:34:58.984Z,27.00
2019-02-19T00:37:34.746Z,23.17
2019-02-19T00:40:09.671Z,23.57
2019-02-19T00:42:53.629Z,22.27
2019-02-19T00:45:28.455Z,24.83
2019-02-19T00:48:04.200Z,28.03
2019-02-19T00:50:39.976Z,24.77
2019-02-19T00:53:21.958Z,24.77
2019-02-19T00:55:57.692Z,30.90
2019-02-19T00:58:33.458Z,26.27
2019-02-19T01:01:08.344Z,25.67
2019-02-19T01:03:43.243Z,27.63
2019-02-19T01:06:18.061Z,32.97
2019-02-19T01:08:52.970Z,28.63
2019-02-19T01:11:27.846Z,29.10
2019-02-19T01:14:02.774Z,31.83
2019-02-19T01:16:37.656Z,27.10
2019-02-19T01:19:12.568Z,31.30
2019-02-19T01:21:47.368Z,27.47
2019-02-19T01:24:22.511Z,26.30
2019-02-19T01:26:57.414Z,27.70
2019-02-19T01:29:32.538Z,32.63
2019-02-19T01:32:07.562Z,29.47
2019-02-19T01:34:43.347Z,23.77
2019-02-19T01:37:18.268Z,28.30
2019-02-19T01:39:53.182Z,35.83
2019-02-19T01:42:28.114Z,31.90
2019-02-19T01:45:03.060Z,26.43
2019-02-19T01:47:37.958Z,28.30
2019-02-19T01:50:12.860Z,29.33
2019-02-19T01:52:48.618Z,31.83
2019-02-19T01:55:25.178Z,33.40
2019-02-19T01:58:00.198Z,31.80
2019-02-19T02:00:35.556Z,39.03
2019-02-19T02:03:10.320Z,37.70
2019-02-19T02:05:45.405Z,33.37
2019-02-19T02:08:21.110Z,40.03
2019-02-19T02:10:56.008Z,34.73
2019-02-19T02:13:30.998Z,35.33
2019-02-19T02:16:06.744Z,33.07
2019-02-19T02:18:41.579Z,35.70
2019-02-19T02:21:16.475Z,34.87
2019-02-19T02:23:52.196Z,33.27
2019-02-19T02:26:27.126Z,33.37
2019-02-19T02:29:02.001Z,33.07
2019-02-19T02:31:37.752Z,31.90
2019-02-19T02:34:13.501Z,35.37
2019-02-19T02:36:48.786Z,40.60
2019-02-19T02:39:23.682Z,34.00
2019-02-19T02:41:58.589Z,38.37
2019-02-19T02:44:36.126Z,39.17
2019-02-19T02:47:11.064Z,32.37
2019-02-19T02:49:46.014Z,35.53
2019-02-19T02:52:20.936Z,37.07
2019-02-19T02:54:55.860Z,32.40
2019-02-19T02:57:36.328Z,34.30
2019-02-19T03:00:13.589Z,34.40
2019-02-19T03:02:48.577Z,37.07
2019-02-19T03:05:25.315Z,36.60
2019-02-19T03:08:03.563Z,40.43
2019-02-19T03:10:40.970Z,36.00
2019-02-19T03:13:17.806Z,32.47
2019-02-19T03:16:01.918Z,37.57
2019-02-19T03:18:42.459Z,36.27
2019-02-19T03:21:17.340Z,29.87
2019-02-19T03:23:52.567Z,33.57
2019-02-19T03:26:27.633Z,36.60
2019-02-19T03:29:02.612Z,38.77
2019-02-19T03:31:37.548Z,39.50
2019-02-19T03:34:12.489Z,38.23
2019-02-19T03:36:47.439Z,41.80
2019-02-19T03:39:22.363Z,35.00
2019-02-19T03:41:57.230Z,34.13
2019-02-19T03:44:32.119Z,38.53
2019-02-19T03:47:08.091Z,33.37
2019-02-19T03:49:43.190Z,32.97
2019-02-19T03:52:18.064Z,35.57
2019-02-19T03:54:53.108Z,28.90
2019-02-19T03:57:28.018Z,31.13
2019-02-19T04:00:04.030Z,32.63
2019-02-19T04:02:38.936Z,32.67
2019-02-19T04:05:16.315Z,29.20
2019-02-19T04:07:52.032Z,34.20
2019-02-19T04:10:27.802Z,29.47
2019-02-19T04:13:03.861Z,31.73
2019-02-19T04:15:56.878Z,26.43
2019-02-19T04:18:35.247Z,34.90
2019-02-19T04:21:20.358Z,30.30
2019-02-19T04:23:57.659Z,35.17
2019-02-19T04:26:49.736Z,30.03
2019-02-19T04:29:27.041Z,36.03
2019-02-19T04:32:02.846Z,33.60
2019-02-19T04:34:40.183Z,35.30
2019-02-19T04:37:15.969Z,32.10
2019-02-19T04:39:51.694Z,32.13
2019-02-19T04:42:28.038Z,30.77
2019-02-19T04:45:03.859Z,31.97
2019-02-19T04:47:39.653Z,36.27
2019-02-19T04:50:14.763Z,36.00
2019-02-19T04:52:50.682Z,29.47
2019-02-19T04:55:25.534Z,31.07
2019-02-19T04:58:01.427Z,27.10
2019-02-19T05:00:36.303Z,26.40
2019-02-19T05:03:12.084Z,30.87
2019-02-19T05:05:47.909Z,28.90
2019-02-19T05:08:23.676Z,33.53
2019-02-19T05:10:59.381Z,28.70
2019-02-19T05:13:35.137Z,28.00
2019-02-19T05:16:11.071Z,28.50
2019-02-19T05:19:04.175Z,29.27
2019-02-19T05:21:39.103Z,24.93
2019-02-19T05:24:14.906Z,23.17
2019-02-19T05:26:50.659Z,26.70
2019-02-19T05:29:33.711Z,24.77
2019-02-19T05:32:09.491Z,24.93
2019-02-19T05:34:45.316Z,26.80
2019-02-19T05:37:21.152Z,25.70
2019-02-19T05:39:56.170Z,24.80
2019-02-19T05:42:54.787Z,18.10
2019-02-19T05:45:30.581Z,28.83
2019-02-19T05:48:06.288Z,28.27
2019-02-19T05:50:42.112Z,24.17
2019-02-19T05:53:45.078Z,22.70
2019-02-19T05:56:45.272Z,27.10
2019-02-19T05:59:20.146Z,25.70
2019-02-19T06:01:56.301Z,23.70
2019-02-19T06:04:38.597Z,24.97
2019-02-19T06:07:14.364Z,25.60
2019-02-19T06:09:51.140Z,23.30
2019-02-19T06:12:28.152Z,23.03
2019-02-19T06:15:03.997Z,22.30
2019-02-19T06:17:39.755Z,24.23
2019-02-19T06:20:15.581Z,24.10
2019-02-19T06:22:52.283Z,19.13
2019-02-19T06:25:30.167Z,23.93
2019-02-19T06:28:06.040Z,20.97
2019-02-19T06:31:00.232Z,23.97
2019-02-19T06:33:37.051Z,24.10
2019-02-19T06:36:16.049Z,27.20
2019-02-19T06:39:09.337Z,24.30
2019-02-19T06:41:46.707Z,24.70
2019-02-19T06:44:22.433Z,24.03
2019-02-19T06:50:55.281Z,29.30
2019-02-19T06:53:30.209Z,23.10
2019-02-19T06:56:11.807Z,32.03
2019-02-19T07:03:27.559Z,26.50
2019-02-19T07:06:04.716Z,23.23
2019-02-19T07:08:46.223Z,29.10
2019-02-19T07:11:21.961Z,25.43
2019-02-19T07:13:57.743Z,23.97
2019-02-19T07:16:33.919Z,22.90
2019-02-19T07:19:10.049Z,21.10
2019-02-19T07:21:45.291Z,20.53
2019-02-19T07:24:20.441Z,31.23
2019-02-19T07:26:55.501Z,21.77
2019-02-19T07:29:31.771Z,18.47
2019-02-19T07:32:06.744Z,15.87
2019-02-19T07:35:30.555Z,30.73
2019-02-19T07:38:07.090Z,20.63
2019-02-19T07:40:45.638Z,22.87
2019-02-19T07:43:21.812Z,23.13
2019-02-19T07:45:57.646Z,15.67
2019-02-19T07:48:34.397Z,22.87
2019-02-19T07:51:10.344Z,22.27
2019-02-19T07:53:45.206Z,21.67
2019-02-19T07:56:20.691Z,22.83
2019-02-19T07:58:55.761Z,21.10
2019-02-19T08:01:31.611Z,19.90
2019-02-19T08:04:06.497Z,16.90
2019-02-19T08:06:42.488Z,17.40
2019-02-19T08:09:23.637Z,16.77
2019-02-19T08:12:04.820Z,21.10
2019-02-19T08:14:42.539Z,25.43
2019-02-19T08:17:17.631Z,20.37
2019-02-19T08:20:15.912Z,42.47
2019-02-19T08:22:48.232Z,17.80
2019-02-19T08:25:25.225Z,14.60
2019-02-19T08:28:01.565Z,16.20
2019-02-19T08:30:36.869Z,14.20
2019-02-19T08:33:13.634Z,15.20
2019-02-19T08:35:50.061Z,14.70
2019-02-19T08:38:27.387Z,14.67
2019-02-19T08:41:02.803Z,16.00
2019-02-19T08:43:37.814Z,19.37
2019-02-19T08:46:13.577Z,22.50
2019-02-19T08:52:49.553Z,16.20
2019-02-19T08:55:25.297Z,18.43
2019-02-19T09:01:31.291Z,16.87
2019-02-19T09:04:12.837Z,16.00
2019-02-19T09:06:48.029Z,18.03
2019-02-19T09:09:24.171Z,16.07
2019-02-19T09:11:59.471Z,12.50
2019-02-19T09:14:35.600Z,21.17
2019-02-19T09:17:12.313Z,16.77
2019-02-19T09:19:56.248Z,23.37
2019-02-19T09:22:36.937Z,18.30
2019-02-19T09:25:11.857Z,24.23
2019-02-19T09:27:47.773Z,16.43
2019-02-19T09:30:22.917Z,35.87
2019-02-19T09:33:06.731Z,16.53
2019-02-19T09:36:09.147Z,12.67
2019-02-19T09:38:44.588Z,40.80
2019-02-19T09:41:19.467Z,15.70
2019-02-19T09:43:57.355Z,26.73
2019-02-19T09:46:35.063Z,15.50
2019-02-19T09:49:10.605Z,17.90
2019-02-19T09:51:50.506Z,14.37
2019-02-19T09:54:25.538Z,15.03
2019-02-19T09:57:01.764Z,43.57
2019-02-19T09:59:36.799Z,14.77
2019-02-19T10:02:12.538Z,14.30
2019-02-19T10:04:47.824Z,19.37
2019-02-19T10:07:24.373Z,13.27
2019-02-19T10:09:59.759Z,20.70
2019-02-19T10:12:35.087Z,24.07
2019-02-19T10:15:22.115Z,15.20
2019-02-19T10:17:59.517Z,11.47
2019-02-19T10:20:38.500Z,16.13
2019-02-19T10:23:13.839Z,20.17
2019-02-19T10:25:49.441Z,18.83
2019-02-19T10:28:24.460Z,14.90
2019-02-19T10:30:59.354Z,31.33
2019-02-19T10:33:36.328Z,15.30
2019-02-19T10:36:11.496Z,20.47
2019-02-19T10:42:12.845Z,13.50
2019-02-19T10:44:48.244Z,15.40
2019-02-19T10:47:23.306Z,19.40
2019-02-19T10:50:24.517Z,15.30
2019-02-19T10:53:00.698Z,13.93
2019-02-19T10:55:36.923Z,17.27
2019-02-19T10:58:22.503Z,11.00
2019-02-19T11:00:54.296Z,11.53
2019-02-19T11:03:30.226Z,13.13
2019-02-19T11:06:05.262Z,13.00
2019-02-19T11:08:40.193Z,17.43
2019-02-19T11:11:16.087Z,10.73
2019-02-19T11:13:51.287Z,12.90
2019-02-19T11:16:29.510Z,11.97
2019-02-19T11:19:04.946Z,15.57
2019-02-19T11:21:41.179Z,12.00
2019-02-19T11:24:16.351Z,14.13
2019-02-19T11:26:51.494Z,12.70
2019-02-19T11:29:28.026Z,12.23
2019-02-19T11:32:04.349Z,9.00
2019-02-19T11:34:40.459Z,12.43
2019-02-19T11:37:15.702Z,11.70
2019-02-19T11:39:50.644Z,27.40
2019-02-19T11:42:28.514Z,8.63
2019-02-19T11:45:04.755Z,11.53
2019-02-19T11:47:39.774Z,12.23
2019-02-19T11:50:21.651Z,12.60
2019-02-19T11:52:59.010Z,10.10
2019-02-19T11:55:34.893Z,11.47
2019-02-19T11:58:10.122Z,10.23
2019-02-19T12:00:45.598Z,16.47
2019-02-19T12:03:20.576Z,8.77
2019-02-19T12:05:56.319Z,9.47
2019-02-19T12:08:38.846Z,6.87
2019-02-19T12:11:08.847Z,7.60
2019-02-19T12:13:44.624Z,8.50
2019-02-19T12:16:21.728Z,7.07
2019-02-19T12:18:57.194Z,13.33
2019-02-19T12:21:32.946Z,10.70
2019-02-19T12:24:10.484Z,6.00
2019-02-19T12:26:45.634Z,9.17
2019-02-19T12:29:30.912Z,10.90
2019-02-19T12:32:05.908Z,7.57
2019-02-19T12:34:40.884Z,11.93
2019-02-19T12:37:15.778Z,14.90
2019-02-19T12:39:51.616Z,11.53
2019-02-19T12:42:27.242Z,8.40
2019-02-19T12:45:02.756Z,9.03
2019-02-19T12:47:38.632Z,10.00
2019-02-19T12:50:14.756Z,9.77
2019-02-19T12:52:50.161Z,59.13
2019-02-19T12:55:26.110Z,8.77
2019-02-19T12:58:01.051Z,5.87
2019-02-19T13:00:36.570Z,9.27
2019-02-19T13:03:11.638Z,8.90
2019-02-19T13:05:46.521Z,10.90
2019-02-19T13:08:22.196Z,7.90
2019-02-19T13:10:57.134Z,8.77
2019-02-19T13:13:31.977Z,6.43
2019-02-19T13:16:07.952Z,11.17
2019-02-19T13:18:43.812Z,11.80
2019-02-19T13:21:18.714Z,10.53
2019-02-19T13:23:54.434Z,7.57
2019-02-19T13:26:30.294Z,9.60
2019-02-19T13:29:05.185Z,6.83
2019-02-19T13:31:41.656Z,9.70
2019-02-19T13:34:17.377Z,8.80
2019-02-19T13:36:53.164Z,5.00
2019-02-19T13:39:28.098Z,10.57
2019-02-19T13:42:04.566Z,8.77
2019-02-19T13:44:40.298Z,8.20
2019-02-19T13:47:51.244Z,12.50
2019-02-19T13:50:27.016Z,16.93
2019-02-19T13:53:15.706Z,11.83
2019-02-19T13:55:53.327Z,10.33
2019-02-19T13:58:28.360Z,8.70
2019-02-19T14:01:10.718Z,15.10
2019-02-19T14:03:45.736Z,18.70
2019-02-19T14:06:21.514Z,11.60
2019-02-19T14:08:56.435Z,11.53
2019-02-19T14:11:31.504Z,17.97
2019-02-19T14:14:23.926Z,13.07
2019-02-19T14:17:02.922Z,10.80
2019-02-19T14:19:41.945Z,12.80
2019-02-19T14:22:30.246Z,23.53
2019-02-19T14:25:24.500Z,8.10
2019-02-19T14:31:27.978Z,10.73
2019-02-19T14:35:15.546Z,10.40
2019-02-19T14:38:24.316Z,10.77
2019-02-19T14:41:19.124Z,8.50
2019-02-19T14:48:19.548Z,10.97
2019-02-19T14:51:13.384Z,9.07
2019-02-19T14:54:03.608Z,15.93
2019-02-19T14:56:58.170Z,14.30
2019-02-19T14:59:52.794Z,14.00
2019-02-19T15:02:53.039Z,10.90
2019-02-19T15:05:46.774Z,7.00
2019-02-19T15:08:29.582Z,9.97
2019-02-19T15:11:29.015Z,13.67
2019-02-19T15:18:02.480Z,15.80
2019-02-19T15:21:00.687Z,13.80
2019-02-19T15:23:49.975Z,15.67
2019-02-19T15:30:09.120Z,8.97
2019-02-19T15:33:00.406Z,15.87
2019-02-19T15:42:24.636Z,11.20
2019-02-19T15:45:30.819Z,12.77
2019-02-19T15:48:44.152Z,36.43
2019-02-19T15:51:32.533Z,12.87
2019-02-19T15:54:17.866Z,9.00
2019-02-19T15:57:11.717Z,13.83
2019-02-19T16:00:09.260Z,10.67
2019-02-19T16:03:15.704Z,35.87
2019-02-19T16:06:09.395Z,9.63
2019-02-19T16:09:03.296Z,13.90
2019-02-19T16:11:59.409Z,13.70
2019-02-19T16:14:41.234Z,8.70
2019-02-19T16:17:33.126Z,35.83
2019-02-19T16:20:33.782Z,11.47
2019-02-19T16:23:32.447Z,10.33
2019-02-19T16:26:18.804Z,13.17
2019-02-19T16:29:11.664Z,22.87
2019-02-19T16:32:11.899Z,8.80
2019-02-19T16:34:52.011Z,15.30
2019-02-19T16:37:38.530Z,9.77
2019-02-19T16:40:36.226Z,11.17
2019-02-19T16:43:42.376Z,12.73
2019-02-19T16:46:34.768Z,10.10
2019-02-19T16:49:25.629Z,11.80
2019-02-19T16:52:10.313Z,8.67
2019-02-19T16:54:54.122Z,13.73
2019-02-19T16:57:52.228Z,14.03
2019-02-19T17:00:41.036Z,12.13
2019-02-19T17:03:35.849Z,10.37
2019-02-19T17:06:35.726Z,12.43
2019-02-19T17:09:39.595Z,11.37
2019-02-19T17:12:38.826Z,12.13
2019-02-19T17:15:33.219Z,9.00
2019-02-19T17:19:27.888Z,12.80
2019-02-19T17:22:22.504Z,13.50
2019-02-19T17:25:28.756Z,14.30
2019-02-19T17:28:34.533Z,13.67
2019-02-19T17:31:32.118Z,10.13
2019-02-19T17:38:30.228Z,16.07
2019-02-19T17:41:27.603Z,10.90
2019-02-19T17:44:20.384Z,11.97
2019-02-19T17:47:14.477Z,12.63
2019-02-19T17:50:08.515Z,14.67
2019-02-19T17:53:04.492Z,16.03
2019-02-19T17:55:57.777Z,12.63
2019-02-19T17:58:58.439Z,14.97
2019-02-19T18:01:56.149Z,13.80
2019-02-19T18:07:50.292Z,10.73
2019-02-19T18:10:40.009Z,11.90
2019-02-19T18:13:31.506Z,10.10
2019-02-19T18:16:19.274Z,18.43
2019-02-19T18:18:54.316Z,8.77
2019-02-19T18:21:48.945Z,20.83
2019-02-19T18:28:05.504Z,12.33
2019-02-19T18:30:40.403Z,13.60
2019-02-19T18:33:15.321Z,14.57
2019-02-19T18:35:50.321Z,12.63
2019-02-19T18:38:25.220Z,14.57
2019-02-19T18:41:00.159Z,12.40
2019-02-19T18:43:36.020Z,19.73
2019-02-19T18:46:11.869Z,17.03
2019-02-19T18:48:47.741Z,14.00
2019-02-19T18:51:22.679Z,11.33
2019-02-19T18:53:59.756Z,13.23
2019-02-19T18:56:34.816Z,16.37
2019-02-19T18:59:09.696Z,14.43
2019-02-19T19:01:44.759Z,15.67
2019-02-19T19:04:19.647Z,13.97
2019-02-19T19:06:54.699Z,16.47
2019-02-19T19:09:32.741Z,11.40
2019-02-19T19:12:07.729Z,12.50
2019-02-19T19:14:43.529Z,13.43
2019-02-19T19:17:19.315Z,17.20
2019-02-19T19:19:54.296Z,12.03
2019-02-19T19:22:29.308Z,12.43
2019-02-19T19:25:05.143Z,16.37
2019-02-19T19:27:40.997Z,9.50
2019-02-19T19:30:15.969Z,14.87
2019-02-19T19:32:51.796Z,12.67
2019-02-19T19:35:27.585Z,13.47
2019-02-19T19:38:02.510Z,10.90
2019-02-19T19:45:06.704Z,13.07
2019-02-19T19:47:41.628Z,14.20
2019-02-19T19:50:18.117Z,13.97
2019-02-19T19:52:53.913Z,20.17
2019-02-19T19:55:29.735Z,10.47
2019-02-19T19:58:06.670Z,13.20
2019-02-19T20:00:41.623Z,56.47
2019-02-19T20:03:18.493Z,16.67
2019-02-19T20:05:53.584Z,15.80
2019-02-19T20:08:28.583Z,18.00
2019-02-19T20:11:10.155Z,15.50
2019-02-19T20:13:45.883Z,16.93
2019-02-19T20:16:21.704Z,11.50
2019-02-19T20:18:56.616Z,19.10
2019-02-19T20:21:32.348Z,13.10
2019-02-19T20:24:10.401Z,14.17
2019-02-19T20:26:45.315Z,8.00
2019-02-19T20:29:20.349Z,16.47
2019-02-19T20:31:55.309Z,10.57
2019-02-19T20:34:31.049Z,14.83
2019-02-19T20:37:06.017Z,15.40
2019-02-19T20:39:41.002Z,10.00
2019-02-19T20:42:16.822Z,13.40
2019-02-19T20:44:54.493Z,18.70
2019-02-19T20:47:30.239Z,11.10
2019-02-19T20:50:05.609Z,18.20
2019-02-19T20:52:40.652Z,13.00
2019-02-19T20:55:15.653Z,15.13
2019-02-19T20:57:51.462Z,18.60
2019-02-19T21:00:27.276Z,12.43
2019-02-19T21:03:23.257Z,13.73
2019-02-19T21:05:59.134Z,14.97
2019-02-19T21:08:34.283Z,10.87
2019-02-19T21:11:09.211Z,11.50
2019-02-19T21:13:44.423Z,17.47
2019-02-19T21:16:26.267Z,12.03
2019-02-19T21:19:41.799Z,19.70
2019-02-19T21:22:28.028Z,16.10
2019-02-19T21:25:05.231Z,20.30
2019-02-19T21:27:44.597Z,16.77
2019-02-19T21:30:24.120Z,19.33
2019-02-19T21:32:59.936Z,14.27
2019-02-19T21:35:34.950Z,14.70
2019-02-19T21:38:09.938Z,10.00
2019-02-19T21:40:44.908Z,18.00
2019-02-19T21:43:21.177Z,16.23
2019-02-19T21:45:56.921Z,12.40
2019-02-19T21:48:31.845Z,18.93
2019-02-19T21:51:07.656Z,21.90
2019-02-19T21:53:42.664Z,11.60
2019-02-19T21:56:17.661Z,16.50
2019-02-19T21:58:53.505Z,23.33
2019-02-19T22:01:29.310Z,13.07
2019-02-19T22:04:04.778Z,13.40
2019-02-19T22:06:39.978Z,20.13
2019-02-19T22:09:14.952Z,23.57
2019-02-19T22:11:51.046Z,21.93
2019-02-19T22:15:01.978Z,14.50
2019-02-19T22:17:37.984Z,16.93
2019-02-19T22:20:32.474Z,20.33
2019-02-19T22:23:08.732Z,21.83
2019-02-19T22:25:43.658Z,20.87
2019-02-19T22:28:22.951Z,16.80
2019-02-19T22:30:57.996Z,15.27
2019-02-19T22:33:34.319Z,16.53
2019-02-19T22:36:14.061Z,21.43
2019-02-19T22:38:49.900Z,17.17
2019-02-19T22:41:24.782Z,17.33
2019-02-19T22:43:59.688Z,15.77
2019-02-19T22:46:35.056Z,20.50
2019-02-19T22:49:10.027Z,16.07
2019-02-19T22:51:44.920Z,20.00
2019-02-19T22:54:47.949Z,15.97
2019-02-19T22:57:22.982Z,21.00
2019-02-19T22:59:57.910Z,22.13
2019-02-19T23:02:33.387Z,16.93
2019-02-19T23:05:08.798Z,25.50
2019-02-19T23:07:44.588Z,20.87
2019-02-19T23:10:19.548Z,23.03
2019-02-19T23:12:54.598Z,23.87
2019-02-19T23:15:29.542Z,20.07
2019-02-19T23:18:05.256Z,18.60
2019-02-19T23:20:40.146Z,20.67
2019-02-19T23:23:15.921Z,18.80
2019-02-19T23:25:52.548Z,19.03
2019-02-19T23:28:44.006Z,19.10
2019-02-19T23:31:18.968Z,20.80
2019-02-19T23:33:53.875Z,37.87
2019-02-19T23:37:01.612Z,20.90
2019-02-19T23:39:43.403Z,17.80
2019-02-19T23:42:14.847Z,24.63
2019-02-19T23:44:50.608Z,20.50
2019-02-19T23:47:26.362Z,18.97
2019-02-19T23:50:01.246Z,20.77
2019-02-19T23:52:36.206Z,18.93
2019-02-19T23:55:11.016Z,18.73
2019-02-19T23:57:46.898Z,18.20
